sensor_id;sensor_type;location;lat;lon;timestamp;P1;durP1;ratioP1;P2;durP2;ratioP2
62903;SDS011;49000;50.698;13.322;2023-10-31T00:02:18;15.67;;;13.63;;
62903;SDS011;49000;50.698;13.322;2023-10-31T00:04:44;14.50;;;11.70;;
62903;SDS011;49000;50.698;13.322;2023-10-31T00:07:10;14.03;;;12.10;;
62903;SDS011;49000;50.698;13.322;2023-10-31T00:09:36;12.97;;;10.40;;
62903;SDS011;49000;50.698;13.322;2023-10-31T00:12:04;13.20;;;11.40;;
62903;SDS011;49000;50.698;13.322;2023-10-31T00:14:30;12.73;;;10.63;;
62903;SDS011;49000;50.698;13.322;2023-10-31T00:16:55;11.93;;;10.73;;
62903;SDS011;49000;50.698;13.322;2023-10-31T00:19:21;13.70;;;11.23;;
62903;SDS011;49000;50.698;13.322;2023-10-31T00:21:47;10.33;;;9.33;;
62903;SDS011;49000;50.698;13.322;2023-10-31T00:24:12;12.07;;;10.77;;
62903;SDS011;49000;50.698;13.322;2023-10-31T00:26:38;12.40;;;10.70;;
62903;SDS011;49000;50.698;13.322;2023-10-31T00:29:03;12.67;;;10.77;;
62903;SDS011;49000;50.698;13.322;2023-10-31T00:31:29;14.63;;;10.73;;
62903;SDS011;49000;50.698;13.322;2023-10-31T00:33:54;13.63;;;10.43;;
62903;SDS011;49000;50.698;13.322;2023-10-31T00:36:20;11.50;;;10.00;;
62903;SDS011;49000;50.698;13.322;2023-10-31T00:38:46;10.70;;;9.70;;
62903;SDS011;49000;50.698;13.322;2023-10-31T00:41:11;11.93;;;10.10;;
62903;SDS011;49000;50.698;13.322;2023-10-31T00:43:37;16.27;;;11.77;;
62903;SDS011;49000;50.698;13.322;2023-10-31T00:46:03;11.50;;;10.30;;
62903;SDS011;49000;50.698;13.322;2023-10-31T00:48:29;11.87;;;10.20;;
62903;SDS011;49000;50.698;13.322;2023-10-31T00:51:01;15.93;;;12.50;;
62903;SDS011;49000;50.698;13.322;2023-10-31T00:53:29;13.40;;;10.97;;
62903;SDS011;49000;50.698;13.322;2023-10-31T00:55:56;13.30;;;11.97;;
62903;SDS011;49000;50.698;13.322;2023-10-31T00:58:21;15.30;;;12.80;;
62903;SDS011;49000;50.698;13.322;2023-10-31T01:00:47;12.80;;;11.40;;
62903;SDS011;49000;50.698;13.322;2023-10-31T01:03:12;13.17;;;10.60;;
62903;SDS011;49000;50.698;13.322;2023-10-31T01:05:38;15.57;;;11.63;;
62903;SDS011;49000;50.698;13.322;2023-10-31T01:08:03;12.17;;;10.87;;
62903;SDS011;49000;50.698;13.322;2023-10-31T01:10:29;15.50;;;11.50;;
62903;SDS011;49000;50.698;13.322;2023-10-31T01:12:54;12.03;;;9.93;;
62903;SDS011;49000;50.698;13.322;2023-10-31T01:15:20;11.43;;;10.23;;
62903;SDS011;49000;50.698;13.322;2023-10-31T01:17:45;12.77;;;11.47;;
62903;SDS011;49000;50.698;13.322;2023-10-31T01:20:11;14.60;;;12.47;;
62903;SDS011;49000;50.698;13.322;2023-10-31T01:22:37;13.90;;;10.80;;
62903;SDS011;49000;50.698;13.322;2023-10-31T01:25:02;13.63;;;12.20;;
62903;SDS011;49000;50.698;13.322;2023-10-31T01:27:28;14.43;;;12.47;;
62903;SDS011;49000;50.698;13.322;2023-10-31T01:29:54;14.37;;;12.50;;
62903;SDS011;49000;50.698;13.322;2023-10-31T01:32:19;13.43;;;11.77;;
62903;SDS011;49000;50.698;13.322;2023-10-31T01:34:45;10.70;;;9.30;;
62903;SDS011;49000;50.698;13.322;2023-10-31T01:37:10;15.50;;;11.57;;
62903;SDS011;49000;50.698;13.322;2023-10-31T01:39:36;15.40;;;12.80;;
62903;SDS011;49000;50.698;13.322;2023-10-31T01:42:02;14.70;;;12.13;;
62903;SDS011;49000;50.698;13.322;2023-10-31T01:44:27;14.27;;;12.10;;
62903;SDS011;49000;50.698;13.322;2023-10-31T01:46:53;14.33;;;12.03;;
62903;SDS011;49000;50.698;13.322;2023-10-31T01:49:18;18.77;;;13.77;;
62903;SDS011;49000;50.698;13.322;2023-10-31T01:51:44;17.17;;;13.30;;
62903;SDS011;49000;50.698;13.322;2023-10-31T01:54:10;18.33;;;14.27;;
62903;SDS011;49000;50.698;13.322;2023-10-31T01:56:37;20.37;;;14.77;;
62903;SDS011;49000;50.698;13.322;2023-10-31T01:59:04;17.53;;;13.90;;
62903;SDS011;49000;50.698;13.322;2023-10-31T02:01:31;15.93;;;13.10;;
62903;SDS011;49000;50.698;13.322;2023-10-31T02:04:03;19.00;;;14.80;;
62903;SDS011;49000;50.698;13.322;2023-10-31T02:06:28;17.70;;;12.80;;
62903;SDS011;49000;50.698;13.322;2023-10-31T02:08:55;14.00;;;11.57;;
62903;SDS011;49000;50.698;13.322;2023-10-31T02:11:21;19.77;;;13.53;;
62903;SDS011;49000;50.698;13.322;2023-10-31T02:13:46;16.50;;;13.23;;
62903;SDS011;49000;50.698;13.322;2023-10-31T02:16:12;16.80;;;13.70;;
62903;SDS011;49000;50.698;13.322;2023-10-31T02:18:37;17.70;;;12.83;;
62903;SDS011;49000;50.698;13.322;2023-10-31T02:21:03;17.37;;;13.40;;
62903;SDS011;49000;50.698;13.322;2023-10-31T02:23:28;19.60;;;14.77;;
62903;SDS011;49000;50.698;13.322;2023-10-31T02:25:54;18.50;;;14.03;;
62903;SDS011;49000;50.698;13.322;2023-10-31T02:28:19;18.63;;;13.17;;
62903;SDS011;49000;50.698;13.322;2023-10-31T02:30:45;18.63;;;13.07;;
62903;SDS011;49000;50.698;13.322;2023-10-31T02:33:10;17.40;;;12.77;;
62903;SDS011;49000;50.698;13.322;2023-10-31T02:35:36;15.40;;;12.27;;
62903;SDS011;49000;50.698;13.322;2023-10-31T02:38:02;18.53;;;12.77;;
62903;SDS011;49000;50.698;13.322;2023-10-31T02:40:27;19.83;;;13.60;;
62903;SDS011;49000;50.698;13.322;2023-10-31T02:42:53;18.20;;;13.40;;
62903;SDS011;49000;50.698;13.322;2023-10-31T02:45:18;16.70;;;12.50;;
62903;SDS011;49000;50.698;13.322;2023-10-31T02:47:44;15.87;;;11.43;;
62903;SDS011;49000;50.698;13.322;2023-10-31T02:50:09;15.70;;;11.07;;
62903;SDS011;49000;50.698;13.322;2023-10-31T02:52:35;12.73;;;9.43;;
62903;SDS011;49000;50.698;13.322;2023-10-31T02:55:01;12.67;;;9.20;;
62903;SDS011;49000;50.698;13.322;2023-10-31T02:57:26;9.27;;;7.27;;
62903;SDS011;49000;50.698;13.322;2023-10-31T02:59:52;7.53;;;6.63;;
62903;SDS011;49000;50.698;13.322;2023-10-31T03:02:18;8.33;;;6.23;;
62903;SDS011;49000;50.698;13.322;2023-10-31T03:04:43;6.27;;;5.53;;
62903;SDS011;49000;50.698;13.322;2023-10-31T03:07:09;6.50;;;4.87;;
62903;SDS011;49000;50.698;13.322;2023-10-31T03:09:34;6.37;;;4.93;;
62903;SDS011;49000;50.698;13.322;2023-10-31T03:12:00;5.47;;;4.90;;
62903;SDS011;49000;50.698;13.322;2023-10-31T03:14:25;7.07;;;5.27;;
62903;SDS011;49000;50.698;13.322;2023-10-31T03:16:51;5.63;;;4.70;;
62903;SDS011;49000;50.698;13.322;2023-10-31T03:19:16;4.50;;;3.90;;
62903;SDS011;49000;50.698;13.322;2023-10-31T03:21:42;4.23;;;3.33;;
62903;SDS011;49000;50.698;13.322;2023-10-31T03:24:07;3.37;;;3.03;;
62903;SDS011;49000;50.698;13.322;2023-10-31T03:26:33;3.87;;;3.30;;
62903;SDS011;49000;50.698;13.322;2023-10-31T03:28:59;4.20;;;3.20;;
62903;SDS011;49000;50.698;13.322;2023-10-31T03:31:24;4.23;;;2.93;;
62903;SDS011;49000;50.698;13.322;2023-10-31T03:33:50;2.77;;;1.90;;
62903;SDS011;49000;50.698;13.322;2023-10-31T03:36:16;3.03;;;2.33;;
62903;SDS011;49000;50.698;13.322;2023-10-31T03:38:42;2.53;;;2.00;;
62903;SDS011;49000;50.698;13.322;2023-10-31T03:41:08;2.33;;;1.63;;
62903;SDS011;49000;50.698;13.322;2023-10-31T03:43:33;2.23;;;1.57;;
62903;SDS011;49000;50.698;13.322;2023-10-31T03:45:59;3.10;;;1.40;;
62903;SDS011;49000;50.698;13.322;2023-10-31T03:48:25;1.37;;;1.20;;
62903;SDS011;49000;50.698;13.322;2023-10-31T03:50:50;3.93;;;1.40;;
62903;SDS011;49000;50.698;13.322;2023-10-31T03:53:16;2.90;;;1.30;;
62903;SDS011;49000;50.698;13.322;2023-10-31T03:55:42;2.33;;;1.17;;
62903;SDS011;49000;50.698;13.322;2023-10-31T03:58:07;2.43;;;1.10;;
62903;SDS011;49000;50.698;13.322;2023-10-31T04:00:33;2.40;;;1.07;;
62903;SDS011;49000;50.698;13.322;2023-10-31T04:02:58;1.10;;;0.90;;
62903;SDS011;49000;50.698;13.322;2023-10-31T04:05:24;1.10;;;0.97;;
62903;SDS011;49000;50.698;13.322;2023-10-31T04:07:49;1.17;;;0.70;;
62903;SDS011;49000;50.698;13.322;2023-10-31T04:10:15;1.50;;;0.90;;
62903;SDS011;49000;50.698;13.322;2023-10-31T04:12:42;1.17;;;0.80;;
62903;SDS011;49000;50.698;13.322;2023-10-31T04:15:08;1.23;;;0.90;;
62903;SDS011;49000;50.698;13.322;2023-10-31T04:17:34;1.47;;;0.80;;
62903;SDS011;49000;50.698;13.322;2023-10-31T04:20:00;1.60;;;1.23;;
62903;SDS011;49000;50.698;13.322;2023-10-31T04:22:26;1.63;;;1.00;;
62903;SDS011;49000;50.698;13.322;2023-10-31T04:24:52;1.03;;;0.93;;
62903;SDS011;49000;50.698;13.322;2023-10-31T04:27:17;1.33;;;0.87;;
62903;SDS011;49000;50.698;13.322;2023-10-31T04:29:43;1.17;;;0.70;;
62903;SDS011;49000;50.698;13.322;2023-10-31T04:32:09;2.23;;;0.83;;
62903;SDS011;49000;50.698;13.322;2023-10-31T04:34:35;1.43;;;0.70;;
62903;SDS011;49000;50.698;13.322;2023-10-31T04:37:00;1.00;;;0.70;;
62903;SDS011;49000;50.698;13.322;2023-10-31T04:39:26;0.50;;;0.50;;
62903;SDS011;49000;50.698;13.322;2023-10-31T04:41:52;0.57;;;0.57;;
62903;SDS011;49000;50.698;13.322;2023-10-31T04:44:17;0.63;;;0.50;;
62903;SDS011;49000;50.698;13.322;2023-10-31T04:46:43;1.33;;;0.47;;
62903;SDS011;49000;50.698;13.322;2023-10-31T04:49:08;1.60;;;0.50;;
62903;SDS011;49000;50.698;13.322;2023-10-31T04:51:35;0.60;;;0.50;;
62903;SDS011;49000;50.698;13.322;2023-10-31T04:54:01;0.87;;;0.50;;
62903;SDS011;49000;50.698;13.322;2023-10-31T04:56:27;0.80;;;0.30;;
62903;SDS011;49000;50.698;13.322;2023-10-31T04:58:52;1.60;;;0.50;;
62903;SDS011;49000;50.698;13.322;2023-10-31T05:01:18;0.40;;;0.40;;
62903;SDS011;49000;50.698;13.322;2023-10-31T05:03:44;0.50;;;0.50;;
62903;SDS011;49000;50.698;13.322;2023-10-31T05:06:10;1.83;;;1.07;;
62903;SDS011;49000;50.698;13.322;2023-10-31T05:08:36;0.40;;;0.40;;
62903;SDS011;49000;50.698;13.322;2023-10-31T05:11:01;0.50;;;0.30;;
62903;SDS011;49000;50.698;13.322;2023-10-31T05:13:27;0.70;;;0.50;;
62903;SDS011;49000;50.698;13.322;2023-10-31T05:15:52;0.57;;;0.37;;
62903;SDS011;49000;50.698;13.322;2023-10-31T05:18:18;0.77;;;0.40;;
62903;SDS011;49000;50.698;13.322;2023-10-31T05:20:44;0.63;;;0.50;;
62903;SDS011;49000;50.698;13.322;2023-10-31T05:23:09;0.53;;;0.40;;
62903;SDS011;49000;50.698;13.322;2023-10-31T05:25:35;0.50;;;0.40;;
62903;SDS011;49000;50.698;13.322;2023-10-31T05:28:01;0.40;;;0.40;;
62903;SDS011;49000;50.698;13.322;2023-10-31T05:30:27;0.73;;;0.40;;
62903;SDS011;49000;50.698;13.322;2023-10-31T05:32:52;0.83;;;0.40;;
62903;SDS011;49000;50.698;13.322;2023-10-31T05:35:18;0.77;;;0.40;;
62903;SDS011;49000;50.698;13.322;2023-10-31T05:37:45;0.30;;;0.30;;
62903;SDS011;49000;50.698;13.322;2023-10-31T05:40:11;0.60;;;0.30;;
62903;SDS011;49000;50.698;13.322;2023-10-31T05:42:37;0.70;;;0.50;;
62903;SDS011;49000;50.698;13.322;2023-10-31T05:45:03;1.13;;;0.40;;
62903;SDS011;49000;50.698;13.322;2023-10-31T05:47:29;0.50;;;0.40;;
62903;SDS011;49000;50.698;13.322;2023-10-31T05:49:55;2.30;;;0.30;;
62903;SDS011;49000;50.698;13.322;2023-10-31T05:52:20;0.50;;;0.40;;
62903;SDS011;49000;50.698;13.322;2023-10-31T05:54:46;0.80;;;0.40;;
62903;SDS011;49000;50.698;13.322;2023-10-31T05:57:11;4.07;;;0.90;;
62903;SDS011;49000;50.698;13.322;2023-10-31T05:59:37;0.47;;;0.47;;
62903;SDS011;49000;50.698;13.322;2023-10-31T06:02:02;1.43;;;0.53;;
62903;SDS011;49000;50.698;13.322;2023-10-31T06:04:28;0.70;;;0.43;;
62903;SDS011;49000;50.698;13.322;2023-10-31T06:06:53;0.57;;;0.40;;
62903;SDS011;49000;50.698;13.322;2023-10-31T06:09:19;0.80;;;0.20;;
62903;SDS011;49000;50.698;13.322;2023-10-31T06:11:44;0.33;;;0.30;;
62903;SDS011;49000;50.698;13.322;2023-10-31T06:14:10;2.80;;;0.40;;
62903;SDS011;49000;50.698;13.322;2023-10-31T06:16:39;0.60;;;0.30;;
62903;SDS011;49000;50.698;13.322;2023-10-31T06:19:06;0.40;;;0.30;;
62903;SDS011;49000;50.698;13.322;2023-10-31T06:21:32;0.57;;;0.37;;
62903;SDS011;49000;50.698;13.322;2023-10-31T06:23:57;2.17;;;0.40;;
62903;SDS011;49000;50.698;13.322;2023-10-31T06:26:23;2.10;;;0.50;;
62903;SDS011;49000;50.698;13.322;2023-10-31T06:28:48;2.23;;;0.50;;
62903;SDS011;49000;50.698;13.322;2023-10-31T06:31:14;1.20;;;0.50;;
62903;SDS011;49000;50.698;13.322;2023-10-31T06:33:39;0.33;;;0.30;;
62903;SDS011;49000;50.698;13.322;2023-10-31T06:36:05;0.43;;;0.40;;
62903;SDS011;49000;50.698;13.322;2023-10-31T06:38:31;0.50;;;0.30;;
62903;SDS011;49000;50.698;13.322;2023-10-31T06:40:57;2.27;;;0.57;;
62903;SDS011;49000;50.698;13.322;2023-10-31T06:43:22;0.53;;;0.30;;
62903;SDS011;49000;50.698;13.322;2023-10-31T06:45:48;0.50;;;0.30;;
62903;SDS011;49000;50.698;13.322;2023-10-31T06:48:13;0.67;;;0.50;;
62903;SDS011;49000;50.698;13.322;2023-10-31T06:50:39;0.80;;;0.33;;
62903;SDS011;49000;50.698;13.322;2023-10-31T06:53:04;1.00;;;0.50;;
62903;SDS011;49000;50.698;13.322;2023-10-31T06:55:30;1.60;;;0.50;;
62903;SDS011;49000;50.698;13.322;2023-10-31T06:57:55;2.53;;;0.40;;
62903;SDS011;49000;50.698;13.322;2023-10-31T07:00:21;2.67;;;0.30;;
62903;SDS011;49000;50.698;13.322;2023-10-31T07:02:46;0.60;;;0.40;;
62903;SDS011;49000;50.698;13.322;2023-10-31T07:05:12;1.33;;;0.30;;
62903;SDS011;49000;50.698;13.322;2023-10-31T07:07:39;0.37;;;0.30;;
62903;SDS011;49000;50.698;13.322;2023-10-31T07:10:04;0.80;;;0.43;;
62903;SDS011;49000;50.698;13.322;2023-10-31T07:12:30;0.87;;;0.40;;
62903;SDS011;49000;50.698;13.322;2023-10-31T07:14:56;0.60;;;0.20;;
62903;SDS011;49000;50.698;13.322;2023-10-31T07:17:23;0.40;;;0.30;;
62903;SDS011;49000;50.698;13.322;2023-10-31T07:19:49;1.23;;;0.40;;
62903;SDS011;49000;50.698;13.322;2023-10-31T07:22:14;0.50;;;0.33;;
62903;SDS011;49000;50.698;13.322;2023-10-31T07:24:40;0.30;;;0.30;;
62903;SDS011;49000;50.698;13.322;2023-10-31T07:27:06;1.60;;;0.40;;
62903;SDS011;49000;50.698;13.322;2023-10-31T07:29:31;1.13;;;0.57;;
62903;SDS011;49000;50.698;13.322;2023-10-31T07:31:57;0.50;;;0.47;;
62903;SDS011;49000;50.698;13.322;2023-10-31T07:34:22;0.60;;;0.50;;
62903;SDS011;49000;50.698;13.322;2023-10-31T07:36:48;0.70;;;0.33;;
62903;SDS011;49000;50.698;13.322;2023-10-31T07:39:14;0.60;;;0.30;;
62903;SDS011;49000;50.698;13.322;2023-10-31T07:41:39;0.87;;;0.40;;
62903;SDS011;49000;50.698;13.322;2023-10-31T07:44:05;1.97;;;0.40;;
62903;SDS011;49000;50.698;13.322;2023-10-31T07:46:31;0.47;;;0.30;;
62903;SDS011;49000;50.698;13.322;2023-10-31T07:48:57;0.63;;;0.50;;
62903;SDS011;49000;50.698;13.322;2023-10-31T07:51:23;0.80;;;0.30;;
62903;SDS011;49000;50.698;13.322;2023-10-31T07:53:48;0.40;;;0.27;;
62903;SDS011;49000;50.698;13.322;2023-10-31T07:56:14;0.27;;;0.20;;
62903;SDS011;49000;50.698;13.322;2023-10-31T07:58:47;0.20;;;0.20;;
62903;SDS011;49000;50.698;13.322;2023-10-31T08:01:13;0.43;;;0.30;;
62903;SDS011;49000;50.698;13.322;2023-10-31T08:03:39;1.07;;;0.50;;
62903;SDS011;49000;50.698;13.322;2023-10-31T08:06:05;1.00;;;0.60;;
62903;SDS011;49000;50.698;13.322;2023-10-31T08:08:32;0.53;;;0.43;;
62903;SDS011;49000;50.698;13.322;2023-10-31T08:10:57;1.10;;;0.60;;
62903;SDS011;49000;50.698;13.322;2023-10-31T08:13:24;0.63;;;0.50;;
62903;SDS011;49000;50.698;13.322;2023-10-31T08:15:49;1.10;;;0.50;;
62903;SDS011;49000;50.698;13.322;2023-10-31T08:18:15;0.93;;;0.40;;
62903;SDS011;49000;50.698;13.322;2023-10-31T08:20:40;0.37;;;0.30;;
62903;SDS011;49000;50.698;13.322;2023-10-31T08:23:06;1.47;;;0.43;;
62903;SDS011;49000;50.698;13.322;2023-10-31T08:25:32;1.07;;;0.20;;
62903;SDS011;49000;50.698;13.322;2023-10-31T08:27:57;0.77;;;0.40;;
62903;SDS011;49000;50.698;13.322;2023-10-31T08:30:23;0.97;;;0.40;;
62903;SDS011;49000;50.698;13.322;2023-10-31T08:32:48;0.40;;;0.40;;
62903;SDS011;49000;50.698;13.322;2023-10-31T08:35:13;0.77;;;0.60;;
62903;SDS011;49000;50.698;13.322;2023-10-31T08:37:39;0.73;;;0.60;;
62903;SDS011;49000;50.698;13.322;2023-10-31T08:40:05;0.43;;;0.30;;
62903;SDS011;49000;50.698;13.322;2023-10-31T08:42:31;0.53;;;0.40;;
62903;SDS011;49000;50.698;13.322;2023-10-31T08:44:56;0.60;;;0.50;;
62903;SDS011;49000;50.698;13.322;2023-10-31T08:47:22;0.77;;;0.30;;
62903;SDS011;49000;50.698;13.322;2023-10-31T08:49:48;1.30;;;0.60;;
62903;SDS011;49000;50.698;13.322;2023-10-31T08:52:13;0.63;;;0.40;;
62903;SDS011;49000;50.698;13.322;2023-10-31T08:54:39;0.40;;;0.30;;
62903;SDS011;49000;50.698;13.322;2023-10-31T08:57:04;0.50;;;0.40;;
62903;SDS011;49000;50.698;13.322;2023-10-31T08:59:30;0.87;;;0.33;;
62903;SDS011;49000;50.698;13.322;2023-10-31T09:01:56;0.43;;;0.43;;
62903;SDS011;49000;50.698;13.322;2023-10-31T09:04:22;1.50;;;0.40;;
62903;SDS011;49000;50.698;13.322;2023-10-31T09:06:47;0.43;;;0.30;;
62903;SDS011;49000;50.698;13.322;2023-10-31T09:09:13;0.40;;;0.20;;
62903;SDS011;49000;50.698;13.322;2023-10-31T09:11:40;0.57;;;0.20;;
62903;SDS011;49000;50.698;13.322;2023-10-31T09:14:05;1.87;;;0.40;;
62903;SDS011;49000;50.698;13.322;2023-10-31T09:16:31;0.50;;;0.30;;
62903;SDS011;49000;50.698;13.322;2023-10-31T09:18:56;0.50;;;0.30;;
62903;SDS011;49000;50.698;13.322;2023-10-31T09:21:22;0.40;;;0.40;;
62903;SDS011;49000;50.698;13.322;2023-10-31T09:23:47;0.47;;;0.30;;
62903;SDS011;49000;50.698;13.322;2023-10-31T09:26:13;0.60;;;0.27;;
62903;SDS011;49000;50.698;13.322;2023-10-31T09:28:38;0.40;;;0.40;;
62903;SDS011;49000;50.698;13.322;2023-10-31T09:31:05;1.13;;;0.20;;
62903;SDS011;49000;50.698;13.322;2023-10-31T09:33:31;2.03;;;0.40;;
62903;SDS011;49000;50.698;13.322;2023-10-31T09:35:56;0.30;;;0.23;;
62903;SDS011;49000;50.698;13.322;2023-10-31T09:38:22;0.30;;;0.30;;
62903;SDS011;49000;50.698;13.322;2023-10-31T09:40:47;0.20;;;0.20;;
62903;SDS011;49000;50.698;13.322;2023-10-31T09:43:13;0.40;;;0.30;;
62903;SDS011;49000;50.698;13.322;2023-10-31T09:45:38;1.53;;;0.40;;
62903;SDS011;49000;50.698;13.322;2023-10-31T09:48:04;1.73;;;0.30;;
62903;SDS011;49000;50.698;13.322;2023-10-31T09:50:30;0.40;;;0.30;;
62903;SDS011;49000;50.698;13.322;2023-10-31T09:52:56;1.47;;;0.50;;
62903;SDS011;49000;50.698;13.322;2023-10-31T09:55:22;0.90;;;0.30;;
62903;SDS011;49000;50.698;13.322;2023-10-31T09:57:49;0.40;;;0.20;;
62903;SDS011;49000;50.698;13.322;2023-10-31T10:00:15;0.53;;;0.20;;
62903;SDS011;49000;50.698;13.322;2023-10-31T10:02:40;0.53;;;0.27;;
62903;SDS011;49000;50.698;13.322;2023-10-31T10:05:07;0.73;;;0.20;;
62903;SDS011;49000;50.698;13.322;2023-10-31T10:07:34;0.20;;;0.20;;
62903;SDS011;49000;50.698;13.322;2023-10-31T10:10:02;1.47;;;0.20;;
62903;SDS011;49000;50.698;13.322;2023-10-31T10:12:28;0.97;;;0.20;;
62903;SDS011;49000;50.698;13.322;2023-10-31T10:14:56;1.10;;;0.27;;
62903;SDS011;49000;50.698;13.322;2023-10-31T10:17:23;0.60;;;0.20;;
62903;SDS011;49000;50.698;13.322;2023-10-31T10:20:08;1.07;;;0.30;;
62903;SDS011;49000;50.698;13.322;2023-10-31T10:22:41;0.30;;;0.20;;
62903;SDS011;49000;50.698;13.322;2023-10-31T10:25:13;0.30;;;0.20;;
62903;SDS011;49000;50.698;13.322;2023-10-31T10:27:41;0.73;;;0.20;;
62903;SDS011;49000;50.698;13.322;2023-10-31T10:30:10;0.93;;;0.33;;
62903;SDS011;49000;50.698;13.322;2023-10-31T10:32:37;0.83;;;0.30;;
62903;SDS011;49000;50.698;13.322;2023-10-31T10:35:03;0.40;;;0.20;;
62903;SDS011;49000;50.698;13.322;2023-10-31T10:37:29;0.40;;;0.20;;
62903;SDS011;49000;50.698;13.322;2023-10-31T10:39:55;0.20;;;0.10;;
62903;SDS011;49000;50.698;13.322;2023-10-31T10:45:13;0.20;;;0.17;;
62903;SDS011;49000;50.698;13.322;2023-10-31T10:47:40;1.63;;;0.10;;
62903;SDS011;49000;50.698;13.322;2023-10-31T10:50:11;4.57;;;0.20;;
62903;SDS011;49000;50.698;13.322;2023-10-31T10:52:39;0.43;;;0.20;;
62903;SDS011;49000;50.698;13.322;2023-10-31T10:55:12;0.50;;;0.20;;
62903;SDS011;49000;50.698;13.322;2023-10-31T11:00:21;0.20;;;0.20;;
62903;SDS011;49000;50.698;13.322;2023-10-31T11:02:50;0.37;;;0.20;;
62903;SDS011;49000;50.698;13.322;2023-10-31T11:05:18;1.13;;;0.20;;
62903;SDS011;49000;50.698;13.322;2023-10-31T11:07:44;0.77;;;0.20;;
62903;SDS011;49000;50.698;13.322;2023-10-31T11:10:11;0.40;;;0.20;;
62903;SDS011;49000;50.698;13.322;2023-10-31T11:12:37;1.27;;;0.30;;
62903;SDS011;49000;50.698;13.322;2023-10-31T11:15:06;1.30;;;0.33;;
62903;SDS011;49000;50.698;13.322;2023-10-31T11:17:34;1.03;;;0.30;;
62903;SDS011;49000;50.698;13.322;2023-10-31T11:20:02;2.07;;;0.20;;
62903;SDS011;49000;50.698;13.322;2023-10-31T11:22:39;0.63;;;0.20;;
62903;SDS011;49000;50.698;13.322;2023-10-31T11:25:17;0.23;;;0.20;;
62903;SDS011;49000;50.698;13.322;2023-10-31T11:27:49;0.47;;;0.20;;
62903;SDS011;49000;50.698;13.322;2023-10-31T11:30:22;0.40;;;0.20;;
62903;SDS011;49000;50.698;13.322;2023-10-31T11:32:53;0.40;;;0.20;;
62903;SDS011;49000;50.698;13.322;2023-10-31T11:35:26;1.27;;;0.20;;
62903;SDS011;49000;50.698;13.322;2023-10-31T11:38:01;0.70;;;0.20;;
62903;SDS011;49000;50.698;13.322;2023-10-31T11:41:19;0.90;;;0.23;;
62903;SDS011;49000;50.698;13.322;2023-10-31T11:43:24;0.33;;;0.20;;
62903;SDS011;49000;50.698;13.322;2023-10-31T11:45:50;0.57;;;0.20;;
62903;SDS011;49000;50.698;13.322;2023-10-31T11:48:16;0.40;;;0.20;;
62903;SDS011;49000;50.698;13.322;2023-10-31T11:50:42;0.30;;;0.20;;
62903;SDS011;49000;50.698;13.322;2023-10-31T11:55:38;0.10;;;0.10;;
62903;SDS011;49000;50.698;13.322;2023-10-31T11:58:12;0.30;;;0.20;;
62903;SDS011;49000;50.698;13.322;2023-10-31T12:00:38;0.60;;;0.30;;
62903;SDS011;49000;50.698;13.322;2023-10-31T12:03:04;0.30;;;0.30;;
62903;SDS011;49000;50.698;13.322;2023-10-31T12:05:29;0.13;;;0.13;;
62903;SDS011;49000;50.698;13.322;2023-10-31T12:07:55;0.30;;;0.20;;
62903;SDS011;49000;50.698;13.322;2023-10-31T12:10:25;1.13;;;0.23;;
62903;SDS011;49000;50.698;13.322;2023-10-31T12:12:54;0.43;;;0.30;;
62903;SDS011;49000;50.698;13.322;2023-10-31T12:15:20;0.30;;;0.20;;
62903;SDS011;49000;50.698;13.322;2023-10-31T12:17:46;0.43;;;0.20;;
62903;SDS011;49000;50.698;13.322;2023-10-31T12:20:12;0.57;;;0.20;;
62903;SDS011;49000;50.698;13.322;2023-10-31T12:22:37;0.83;;;0.20;;
62903;SDS011;49000;50.698;13.322;2023-10-31T12:25:05;0.30;;;0.20;;
62903;SDS011;49000;50.698;13.322;2023-10-31T12:27:49;0.30;;;0.20;;
62903;SDS011;49000;50.698;13.322;2023-10-31T12:30:16;1.30;;;0.30;;
62903;SDS011;49000;50.698;13.322;2023-10-31T12:32:43;2.27;;;0.30;;
62903;SDS011;49000;50.698;13.322;2023-10-31T12:35:13;0.30;;;0.30;;
62903;SDS011;49000;50.698;13.322;2023-10-31T12:37:44;0.50;;;0.20;;
62903;SDS011;49000;50.698;13.322;2023-10-31T12:40:12;0.50;;;0.30;;
62903;SDS011;49000;50.698;13.322;2023-10-31T12:42:44;0.30;;;0.30;;
62903;SDS011;49000;50.698;13.322;2023-10-31T12:45:11;0.20;;;0.10;;
62903;SDS011;49000;50.698;13.322;2023-10-31T12:47:37;0.47;;;0.30;;
62903;SDS011;49000;50.698;13.322;2023-10-31T12:50:11;0.70;;;0.40;;
62903;SDS011;49000;50.698;13.322;2023-10-31T12:52:51;1.90;;;0.47;;
62903;SDS011;49000;50.698;13.322;2023-10-31T12:55:18;0.67;;;0.27;;
62903;SDS011;49000;50.698;13.322;2023-10-31T12:57:47;0.77;;;0.30;;
62903;SDS011;49000;50.698;13.322;2023-10-31T13:00:14;0.60;;;0.30;;
62903;SDS011;49000;50.698;13.322;2023-10-31T13:02:41;1.30;;;0.30;;
62903;SDS011;49000;50.698;13.322;2023-10-31T13:05:11;1.30;;;0.80;;
62903;SDS011;49000;50.698;13.322;2023-10-31T13:07:38;1.70;;;0.67;;
62903;SDS011;49000;50.698;13.322;2023-10-31T13:10:05;1.27;;;1.00;;
62903;SDS011;49000;50.698;13.322;2023-10-31T13:12:33;0.97;;;0.33;;
62903;SDS011;49000;50.698;13.322;2023-10-31T13:14:59;9.33;;;8.63;;
62903;SDS011;49000;50.698;13.322;2023-10-31T13:17:26;7.80;;;6.83;;
62903;SDS011;49000;50.698;13.322;2023-10-31T13:19:52;2.33;;;2.13;;
62903;SDS011;49000;50.698;13.322;2023-10-31T13:22:18;1.80;;;0.60;;
62903;SDS011;49000;50.698;13.322;2023-10-31T13:24:43;5.10;;;4.67;;
62903;SDS011;49000;50.698;13.322;2023-10-31T13:27:10;0.63;;;0.40;;
62903;SDS011;49000;50.698;13.322;2023-10-31T13:29:40;0.40;;;0.40;;
62903;SDS011;49000;50.698;13.322;2023-10-31T13:32:06;1.03;;;0.37;;
62903;SDS011;49000;50.698;13.322;2023-10-31T13:34:31;0.50;;;0.27;;
62903;SDS011;49000;50.698;13.322;2023-10-31T13:36:57;0.40;;;0.37;;
62903;SDS011;49000;50.698;13.322;2023-10-31T13:39:23;0.50;;;0.40;;
62903;SDS011;49000;50.698;13.322;2023-10-31T13:41:49;0.77;;;0.30;;
62903;SDS011;49000;50.698;13.322;2023-10-31T13:44:15;0.50;;;0.33;;
62903;SDS011;49000;50.698;13.322;2023-10-31T13:46:41;0.70;;;0.30;;
62903;SDS011;49000;50.698;13.322;2023-10-31T13:49:06;1.97;;;0.30;;
62903;SDS011;49000;50.698;13.322;2023-10-31T13:51:32;0.70;;;0.30;;
62903;SDS011;49000;50.698;13.322;2023-10-31T13:53:58;1.70;;;0.57;;
62903;SDS011;49000;50.698;13.322;2023-10-31T13:56:23;0.63;;;0.50;;
62903;SDS011;49000;50.698;13.322;2023-10-31T13:58:49;0.60;;;0.40;;
62903;SDS011;49000;50.698;13.322;2023-10-31T14:01:15;0.57;;;0.30;;
62903;SDS011;49000;50.698;13.322;2023-10-31T14:03:40;0.60;;;0.40;;
62903;SDS011;49000;50.698;13.322;2023-10-31T14:06:06;0.70;;;0.40;;
62903;SDS011;49000;50.698;13.322;2023-10-31T14:08:31;0.40;;;0.30;;
62903;SDS011;49000;50.698;13.322;2023-10-31T14:10:57;0.77;;;0.70;;
62903;SDS011;49000;50.698;13.322;2023-10-31T14:13:23;1.50;;;1.10;;
62903;SDS011;49000;50.698;13.322;2023-10-31T14:15:48;2.87;;;0.60;;
62903;SDS011;49000;50.698;13.322;2023-10-31T14:18:14;0.90;;;0.60;;
62903;SDS011;49000;50.698;13.322;2023-10-31T14:20:40;0.50;;;0.33;;
62903;SDS011;49000;50.698;13.322;2023-10-31T14:23:06;1.90;;;0.60;;
62903;SDS011;49000;50.698;13.322;2023-10-31T14:25:32;0.80;;;0.40;;
62903;SDS011;49000;50.698;13.322;2023-10-31T14:27:57;0.43;;;0.40;;
62903;SDS011;49000;50.698;13.322;2023-10-31T14:30:23;0.40;;;0.40;;
62903;SDS011;49000;50.698;13.322;2023-10-31T14:32:48;0.90;;;0.60;;